Time;durP1;ratioP1;P1;durP2;ratioP2;P2;SDS_P1;SDS_P2;PMS_P1;PMS_P2;Temp;Humidity;BMP_temperature;BMP_pressure;BME280_temperature;BME280_humidity;BME280_pressure;Samples;Min_cycle;Max_cycle;Signal;HPM_P1;HPM_P2
2022/08/06 00:02:12;;;;;;;0.52;0.52;;;;;;;14.46;49.05;101566.50;5055233;28;20045;-73
2022/08/06 00:04:38;;;;;;;1.70;1.10;;;;;;;14.39;48.72;101567.81;5042479;28;20088;-74
2022/08/06 00:07:03;;;;;;;1.60;0.73;;;;;;;14.31;49.21;101564.47;5066958;28;20025;-72
2022/08/06 00:09:30;;;;;;;10.93;1.20;;;;;;;14.34;49.21;101563.13;5046950;28;20037;-72
2022/08/06 00:11:58;;;;;;;0.70;0.70;;;;;;;14.39;49.14;101565.88;5039427;28;20053;-72
2022/08/06 00:14:25;;;;;;;2.58;1.20;;;;;;;14.26;49.20;101560.84;5061825;28;20375;-73
2022/08/06 00:16:50;;;;;;;1.33;1.23;;;;;;;14.19;49.11;101565.72;5053552;28;20032;-73
2022/08/06 00:19:16;;;;;;;2.13;1.13;;;;;;;14.31;49.21;101563.66;5066051;28;20025;-73
2022/08/06 00:21:41;;;;;;;2.05;1.02;;;;;;;14.52;48.88;101569.28;5039308;28;20037;-71
2022/08/06 00:24:07;;;;;;;1.27;1.05;;;;;;;14.41;49.10;101569.22;5044415;28;20050;-74
2022/08/06 00:26:32;;;;;;;1.25;0.95;;;;;;;14.56;49.47;101570.41;5064021;28;20033;-74
2022/08/06 00:28:58;;;;;;;1.58;0.90;;;;;;;14.65;48.52;101575.19;5057717;28;20088;-73
2022/08/06 00:31:23;;;;;;;1.65;1.00;;;;;;;14.42;49.01;101573.63;5057540;28;20041;-73
2022/08/06 00:33:49;;;;;;;1.75;1.20;;;;;;;14.24;49.84;101576.78;5038948;28;20025;-73
2022/08/06 00:36:14;;;;;;;2.30;1.23;;;;;;;14.19;49.80;101576.75;5048518;28;20070;-73
2022/08/06 00:38:40;;;;;;;1.52;1.10;;;;;;;14.21;49.63;101574.56;5056140;28;20160;-73
2022/08/06 00:41:05;;;;;;;3.58;1.33;;;;;;;14.26;49.00;101577.34;5042818;28;20029;-73
2022/08/06 00:43:31;;;;;;;2.40;1.13;;;;;;;14.20;49.39;101572.91;5073017;28;20092;-74
2022/08/06 00:45:56;;;;;;;1.92;1.45;;;;;;;14.11;49.58;101573.38;5050086;28;20025;-72
2022/08/06 00:48:22;;;;;;;1.67;1.35;;;;;;;13.97;49.33;101569.38;5053093;28;20025;-73
2022/08/06 00:50:47;;;;;;;2.33;1.40;;;;;;;13.98;50.32;101573.00;5058852;28;20422;-73
2022/08/06 00:53:13;;;;;;;3.25;1.75;;;;;;;13.96;49.92;101567.75;5058527;28;20044;-74
2022/08/06 00:55:38;;;;;;;2.78;1.88;;;;;;;14.00;49.78;101568.88;5020339;28;20036;-73
2022/08/06 00:58:04;;;;;;;3.63;1.75;;;;;;;14.04;49.41;101575.50;5051949;28;20029;-72
2022/08/06 01:00:30;;;;;;;5.22;1.92;;;;;;;13.94;49.70;101576.25;5048424;28;20414;-72
2022/08/06 01:02:55;;;;;;;4.78;2.10;;;;;;;13.88;49.82;101579.22;5057167;28;20075;-73
2022/08/06 01:05:21;;;;;;;2.80;2.00;;;;;;;13.73;50.58;101583.47;5053238;28;20032;-72
2022/08/06 01:07:46;;;;;;;2.70;1.98;;;;;;;13.67;50.85;101575.41;5056777;28;20025;-73
2022/08/06 01:10:11;;;;;;;2.97;1.90;;;;;;;13.62;50.58;101576.19;5057584;28;20039;-72
2022/08/06 01:12:37;;;;;;;3.70;1.88;;;;;;;13.60;50.47;101562.72;5037458;28;20057;-73
2022/08/06 01:15:06;;;;;;;3.65;2.00;;;;;;;13.65;50.22;101567.44;5047455;28;20017;-73
2022/08/06 01:17:53;;;;;;;2.45;1.88;;;;;;;13.64;50.41;101579.53;5050396;28;20491;-72
2022/08/06 01:20:52;;;;;;;2.55;2.00;;;;;;;13.62;50.33;101578.94;5042028;28;20029;-72
2022/08/06 01:23:24;;;;;;;3.35;1.90;;;;;;;13.64;50.34;101571.28;5038271;28;20419;-72
2022/08/06 01:25:55;;;;;;;3.63;1.75;;;;;;;13.65;50.80;101583.91;5050409;28;20032;-73
2022/08/06 01:28:25;;;;;;;3.17;2.40;;;;;;;13.66;50.91;101582.03;5047515;28;20032;-72
2022/08/06 01:30:57;;;;;;;4.43;1.80;;;;;;;13.75;50.95;101584.03;5047999;28;20084;-72
2022/08/06 01:33:29;;;;;;;2.10;1.80;;;;;;;13.73;50.04;101575.22;5046504;28;20032;-72
2022/08/06 01:36:04;;;;;;;4.32;2.17;;;;;;;13.66;50.60;101580.09;5054564;28;20013;-72
2022/08/06 01:38:46;;;;;;;4.00;2.30;;;;;;;13.53;50.57;101577.75;5053541;28;20027;-73
2022/08/06 01:41:38;;;;;;;2.58;2.13;;;;;;;13.46;51.51;101591.69;5043666;28;20033;-72
2022/08/06 01:44:04;;;;;;;2.58;1.83;;;;;;;13.46;50.67;101585.38;5044017;28;20481;-72
2022/08/06 01:46:31;;;;;;;3.17;2.10;;;;;;;13.42;51.36;101591.38;5054851;28;20055;-72
2022/08/06 01:48:59;;;;;;;3.08;2.30;;;;;;;13.28;51.14;101587.31;5042946;28;20025;-72
2022/08/06 01:51:25;;;;;;;4.40;2.53;;;;;;;13.28;51.56;101590.06;5039498;28;20025;-73
2022/08/06 01:53:52;;;;;;;2.97;2.50;;;;;;;13.21;51.84;101589.44;5036161;28;20033;-72
2022/08/06 01:56:19;;;;;;;4.13;2.55;;;;;;;13.23;51.51;101587.28;5046612;28;20026;-73
2022/08/06 01:58:47;;;;;;;5.82;2.80;;;;;;;13.18;51.56;101588.00;5038109;28;20402;-74
2022/08/06 02:01:15;;;;;;;2.75;2.20;;;;;;;13.13;51.71;101589.84;5049313;28;20025;-72
2022/08/06 02:03:47;;;;;;;4.35;2.40;;;;;;;13.03;52.08;101588.66;5054968;28;20032;-75
2022/08/06 02:06:19;;;;;;;2.80;2.17;;;;;;;12.93;51.71;101585.78;5054036;28;20422;-73
2022/08/06 02:08:46;;;;;;;4.78;2.40;;;;;;;12.92;52.07;101587.69;5047995;28;20026;-73
2022/08/06 02:11:12;;;;;;;2.90;2.25;;;;;;;13.01;52.28;101584.50;5049332;28;20041;-72
2022/08/06 02:13:40;;;;;;;5.15;2.70;;;;;;;13.00;52.08;101583.66;5032788;28;20033;-72
2022/08/06 02:16:07;;;;;;;4.00;2.45;;;;;;;13.09;52.08;101587.63;5049610;28;20067;-72
2022/08/06 02:18:37;;;;;;;3.65;2.72;;;;;;;13.05;51.94;101586.50;5054256;28;20108;-73
2022/08/06 02:21:09;;;;;;;5.80;3.40;;;;;;;12.97;52.12;101584.19;5039086;28;20021;-73
2022/08/06 02:23:36;;;;;;;3.53;2.90;;;;;;;12.87;52.68;101589.53;5053179;28;20025;-73
2022/08/06 02:26:03;;;;;;;4.45;2.63;;;;;;;12.81;52.99;101585.06;5054645;28;20040;-75
2022/08/06 02:28:31;;;;;;;4.18;2.50;;;;;;;12.82;53.24;101586.69;5052017;28;20056;-74
2022/08/06 02:30:57;;;;;;;3.00;2.63;;;;;;;12.74;52.83;101583.31;5044033;28;20017;-74
2022/08/06 02:33:24;;;;;;;5.32;3.17;;;;;;;12.69;53.24;101585.16;5049594;28;20017;-74
2022/08/06 02:36:11;;;;;;;4.78;2.72;;;;;;;12.74;53.35;101596.22;5052323;28;20083;-73
2022/08/06 02:38:45;;;;;;;5.60;3.20;;;;;;;12.67;53.12;101592.81;5051928;28;20029;-73
2022/08/06 02:41:38;;;;;;;3.75;2.83;;;;;;;12.66;53.78;101589.25;5050960;28;20032;-73
2022/08/06 02:44:22;;;;;;;4.40;2.58;;;;;;;12.63;53.41;101588.91;5046074;28;20712;-74
2022/08/06 02:46:52;;;;;;;3.72;2.70;;;;;;;12.75;53.24;101598.69;5049816;28;20411;-74
2022/08/06 02:49:23;;;;;;;4.28;2.60;;;;;;;12.63;53.17;101599.88;5047580;28;20021;-74
2022/08/06 02:52:04;;;;;;;5.85;3.47;;;;;;;12.58;53.73;101595.13;5047689;28;20035;-74
2022/08/06 02:54:42;;;;;;;3.78;2.80;;;;;;;12.51;53.69;101599.97;5038328;28;20115;-72
2022/08/06 02:57:16;;;;;;;3.38;2.80;;;;;;;12.48;53.91;101608.69;5056402;28;20017;-73
2022/08/06 02:59:49;;;;;;;7.10;2.75;;;;;;;12.42;53.83;101602.28;5053014;28;20021;-72
2022/08/06 03:02:16;;;;;;;5.13;2.83;;;;;;;12.44;54.25;101602.91;5054462;28;20068;-72
2022/08/06 03:04:47;;;;;;;3.08;2.60;;;;;;;12.58;54.12;101603.38;5056022;28;20112;-72
2022/08/06 03:07:14;;;;;;;4.00;2.80;;;;;;;12.59;54.27;101607.78;5043638;28;20021;-72
2022/08/06 03:09:45;;;;;;;3.97;2.95;;;;;;;12.49;54.17;101607.63;5050029;28;20095;-72
2022/08/06 03:12:13;;;;;;;5.72;3.13;;;;;;;12.40;54.29;101602.53;5050061;28;20433;-73
2022/08/06 03:14:40;;;;;;;4.57;3.17;;;;;;;12.36;54.52;101606.88;5070200;28;20128;-72
2022/08/06 03:17:07;;;;;;;4.50;2.65;;;;;;;12.36;54.73;101606.88;5052810;28;20057;-73
2022/08/06 03:19:34;;;;;;;5.55;3.78;;;;;;;12.31;54.90;101609.53;5051857;28;20053;-73
2022/08/06 03:22:01;;;;;;;5.38;3.00;;;;;;;12.28;55.26;101609.19;5052021;28;20017;-73
2022/08/06 03:24:27;;;;;;;4.63;3.40;;;;;;;12.27;55.04;101602.88;5039617;28;20029;-74
2022/08/06 03:26:58;;;;;;;5.53;3.10;;;;;;;12.21;54.86;101609.38;5050281;28;20055;-72
2022/08/06 03:29:26;;;;;;;4.60;3.17;;;;;;;12.16;55.59;101614.75;5074539;28;20044;-72
2022/08/06 03:31:52;;;;;;;5.90;3.38;;;;;;;12.12;55.29;101616.31;5053174;28;20543;-72
2022/08/06 03:34:18;;;;;;;7.82;3.38;;;;;;;12.02;55.63;101615.06;5041488;28;20026;-72
2022/08/06 03:36:46;;;;;;;4.82;3.17;;;;;;;11.98;55.81;101621.28;5056588;28;20025;-72
2022/08/06 03:39:14;;;;;;;4.53;2.80;;;;;;;11.94;55.52;101626.41;5050453;28;20017;-73
2022/08/06 03:41:40;;;;;;;4.20;2.85;;;;;;;11.86;56.29;101624.06;5040948;28;20029;-72
2022/08/06 03:44:07;;;;;;;3.75;3.00;;;;;;;11.91;56.23;101629.63;5046555;28;20013;-72
2022/08/06 03:46:53;;;;;;;7.43;2.50;;;;;;;11.87;55.84;101620.22;5050985;28;20033;-73
2022/08/06 03:49:25;;;;;;;5.18;3.20;;;;;;;11.79;56.06;101624.19;5050379;28;20024;-69
2022/08/06 03:51:53;;;;;;;3.60;2.83;;;;;;;11.83;56.33;101630.03;5055371;28;20032;-73
2022/08/06 03:54:25;;;;;;;4.05;2.63;;;;;;;11.79;56.84;101628.88;5049556;28;20025;-73
2022/08/06 03:56:52;;;;;;;5.00;3.25;;;;;;;11.73;56.45;101629.84;5050038;28;20012;-74
2022/08/06 03:59:20;;;;;;;5.00;3.00;;;;;;;11.62;56.79;101626.91;5056848;28;20020;-72
2022/08/06 04:01:46;;;;;;;5.85;2.90;;;;;;;11.47;57.25;101630.16;5053566;28;20033;-74
2022/08/06 04:04:14;;;;;;;3.63;2.80;;;;;;;11.35;57.40;101623.88;5052020;28;20032;-74
2022/08/06 04:06:42;;;;;;;5.88;3.40;;;;;;;11.28;57.71;101623.19;5055369;28;20071;-73
2022/08/06 04:09:08;;;;;;;3.30;2.45;;;;;;;11.22;57.42;101624.97;5042435;28;20017;-73
2022/08/06 04:11:34;;;;;;;4.43;2.90;;;;;;;11.20;58.18;101618.06;5049248;28;20061;-73
2022/08/06 04:14:00;;;;;;;4.30;2.80;;;;;;;11.19;57.95;101619.97;5053640;28;20495;-73
2022/08/06 04:16:26;;;;;;;4.75;2.70;;;;;;;11.12;57.76;101614.63;5064575;28;20043;-73
2022/08/06 04:18:55;;;;;;;4.65;2.97;;;;;;;11.12;58.36;101619.28;5056794;28;20021;-73
2022/08/06 04:21:23;;;;;;;3.90;2.58;;;;;;;11.04;57.94;101609.53;5054129;28;20059;-73
2022/08/06 04:23:49;;;;;;;3.05;2.45;;;;;;;11.06;58.44;101614.78;5046039;28;20028;-73
2022/08/06 04:26:19;;;;;;;4.57;2.90;;;;;;;11.00;58.62;101622.84;5064669;28;20386;-72
2022/08/06 04:28:48;;;;;;;3.63;2.92;;;;;;;10.92;58.73;101620.50;5053501;28;20130;-73
2022/08/06 04:31:14;;;;;;;3.25;2.42;;;;;;;10.86;58.62;101621.44;5045154;28;20513;-73
2022/08/06 04:33:41;;;;;;;3.83;2.80;;;;;;;10.84;58.87;101642.75;5029876;28;20034;-73
2022/08/06 04:36:08;;;;;;;2.97;2.55;;;;;;;10.81;58.87;101641.31;5049322;28;20036;-72
2022/08/06 04:38:34;;;;;;;4.10;2.67;;;;;;;10.77;59.53;101639.28;5035604;28;20029;-73
2022/08/06 04:41:01;;;;;;;5.32;2.78;;;;;;;10.72;59.18;101630.94;5064771;28;20469;-73
2022/08/06 04:43:27;;;;;;;4.60;2.78;;;;;;;10.76;59.84;101632.16;5044559;28;20025;-73
2022/08/06 04:45:53;;;;;;;5.10;3.17;;;;;;;10.77;59.65;101634.66;5053830;28;20475;-73
2022/08/06 04:48:19;;;;;;;7.10;3.17;;;;;;;10.73;59.94;101632.63;5051920;28;20016;-72
2022/08/06 04:50:45;;;;;;;3.30;2.72;;;;;;;10.71;59.84;101641.06;5037442;28;20037;-70
2022/08/06 04:53:15;;;;;;;4.55;2.55;;;;;;;10.72;59.99;101639.16;5054582;28;20021;-72
2022/08/06 04:55:43;;;;;;;4.32;2.85;;;;;;;10.75;60.14;101641.44;5050666;28;20414;-73
2022/08/06 04:58:10;;;;;;;3.40;2.38;;;;;;;10.89;59.80;101637.38;5045443;28;20035;-71
2022/08/06 05:00:41;;;;;;;6.50;3.58;;;;;;;10.86;60.18;101632.38;5044426;28;20064;-72
2022/08/06 05:03:07;;;;;;;4.30;2.58;;;;;;;10.82;60.21;101625.75;5049733;28;20032;-71
2022/08/06 05:06:01;;;;;;;3.20;2.60;;;;;;;10.94;60.04;101633.94;5038812;28;20029;-72
2022/08/06 05:08:30;;;;;;;4.68;3.33;;;;;;;10.95;60.25;101638.31;5053675;28;20045;-72
2022/08/06 05:11:21;;;;;;;5.18;3.55;;;;;;;10.99;60.34;101632.16;5058159;28;20029;-72
2022/08/06 05:13:54;;;;;;;2.83;2.22;;;;;;;11.02;59.87;101646.44;5063676;28;20071;-72
2022/08/06 05:16:20;;;;;;;5.55;3.10;;;;;;;11.10;60.65;101640.59;5048142;28;20075;-72
2022/08/06 05:18:51;;;;;;;4.10;2.63;;;;;;;11.23;59.99;101651.28;5050195;28;20025;-72
2022/08/06 05:21:23;;;;;;;5.13;3.58;;;;;;;11.28;60.10;101654.13;5048026;28;20379;-72
2022/08/06 05:23:51;;;;;;;5.05;3.40;;;;;;;11.27;60.04;101644.25;5041255;28;20024;-73
2022/08/06 05:26:16;;;;;;;3.92;3.20;;;;;;;11.30;60.15;101652.00;5063453;28;20472;-73
2022/08/06 05:28:42;;;;;;;4.75;3.00;;;;;;;11.41;60.11;101660.44;5049074;28;20021;-73
2022/08/06 05:31:09;;;;;;;4.43;3.15;;;;;;;11.44;59.98;101654.47;5062935;28;20060;-73
2022/08/06 05:33:37;;;;;;;4.28;2.90;;;;;;;11.54;60.04;101671.13;5043148;28;20031;-73
2022/08/06 05:36:10;;;;;;;4.60;2.55;;;;;;;11.51;60.11;101666.94;5055549;28;20503;-72
2022/08/06 05:38:39;;;;;;;9.18;3.03;;;;;;;11.60;59.97;101680.28;5039423;28;20025;-73
2022/08/06 05:41:06;;;;;;;3.65;2.65;;;;;;;11.58;59.72;101680.50;5041331;28;20104;-73
2022/08/06 05:43:32;;;;;;;3.40;2.42;;;;;;;11.66;59.87;101691.06;5055389;28;20092;-73
2022/08/06 05:46:01;;;;;;;3.97;3.15;;;;;;;11.69;59.84;101690.59;5041859;28;20056;-72
2022/08/06 05:48:31;;;;;;;5.10;3.20;;;;;;;11.61;60.12;101685.50;5046042;28;20031;-73
2022/08/06 05:51:04;;;;;;;4.45;3.65;;;;;;;11.58;59.95;101690.63;5042516;28;20103;-73
2022/08/06 05:53:40;;;;;;;4.40;2.90;;;;;;;11.63;59.99;101688.00;5056837;28;20025;-73
2022/08/06 05:56:13;;;;;;;4.75;2.83;;;;;;;11.73;59.76;101690.13;5049978;28;20025;-72
2022/08/06 05:58:47;;;;;;;4.90;3.05;;;;;;;11.83;60.01;101695.81;5051946;28;20450;-73
2022/08/06 06:01:13;;;;;;;5.00;2.97;;;;;;;11.91;59.18;101698.16;5038181;28;20061;-73
2022/08/06 06:03:41;;;;;;;3.85;2.75;;;;;;;12.02;59.11;101683.59;5047080;28;20029;-73
2022/08/06 06:06:08;;;;;;;4.75;3.45;;;;;;;12.11;59.31;101691.44;5044446;28;20108;-73
2022/08/06 06:08:35;;;;;;;4.25;3.08;;;;;;;12.22;58.76;101696.88;5056040;28;20029;-74
2022/08/06 06:11:02;;;;;;;4.90;2.85;;;;;;;12.32;58.61;101693.47;5050656;28;20130;-73
2022/08/06 06:13:29;;;;;;;8.57;3.88;;;;;;;12.40;58.82;101695.81;5043818;28;20049;-73
2022/08/06 06:16:13;;;;;;;3.65;3.05;;;;;;;12.51;58.53;101696.00;5056078;28;20040;-72
2022/08/06 06:18:49;;;;;;;5.25;3.60;;;;;;;12.67;58.28;101700.66;5047471;28;20037;-70
2022/08/06 06:21:45;;;;;;;7.38;3.75;;;;;;;12.84;58.01;101695.16;5041566;28;20055;-70
2022/08/06 06:24:48;;;;;;;5.63;3.67;;;;;;;13.08;57.73;101706.81;5037852;28;20033;-68
2022/08/06 06:27:18;;;;;;;4.47;3.35;;;;;;;13.14;56.79;101717.84;5036055;28;20042;-71
2022/08/06 06:29:44;;;;;;;4.82;3.40;;;;;;;13.24;57.68;101707.88;5050486;28;20040;-70
2022/08/06 06:32:24;;;;;;;3.95;3.20;;;;;;;13.41;56.66;101716.09;5040916;28;20021;-71
2022/08/06 06:35:08;;;;;;;5.50;3.80;;;;;;;13.57;56.19;101708.88;5051906;28;20101;-71
2022/08/06 06:37:48;;;;;;;5.68;3.40;;;;;;;13.75;56.17;101718.72;5041257;28;20487;-72
2022/08/06 06:40:22;;;;;;;4.18;3.35;;;;;;;13.98;56.08;101718.75;5044348;28;20021;-70
2022/08/06 06:43:05;;;;;;;5.32;3.08;;;;;;;14.12;55.38;101720.81;5034481;28;20037;-70
2022/08/06 06:45:42;;;;;;;4.15;2.90;;;;;;;14.21;55.50;101717.63;5052876;28;20036;-72
2022/08/06 06:48:23;;;;;;;5.00;3.17;;;;;;;14.27;54.77;101716.56;5051273;28;20459;-71
2022/08/06 06:50:54;;;;;;;5.65;2.70;;;;;;;14.35;55.47;101720.78;5045605;28;20051;-73
2022/08/06 06:53:22;;;;;;;3.75;2.88;;;;;;;14.46;55.14;101726.13;5043775;28;20632;-72
2022/08/06 06:55:51;;;;;;;7.13;4.00;;;;;;;14.68;54.74;101728.00;5039114;28;20025;-73
2022/08/06 06:58:26;;;;;;;4.93;3.33;;;;;;;14.77;54.42;101723.66;5046984;28;20420;-72
2022/08/06 07:00:53;;;;;;;6.40;3.58;;;;;;;14.86;54.37;101731.44;5062371;28;20158;-72
2022/08/06 07:03:21;;;;;;;4.45;3.08;;;;;;;14.93;53.98;101729.31;5043464;28;20056;-74
2022/08/06 07:05:48;;;;;;;6.63;3.78;;;;;;;15.01;53.94;101731.59;5042150;28;20025;-73
2022/08/06 07:08:17;;;;;;;5.80;3.65;;;;;;;15.13;53.74;101726.69;5044881;28;20029;-75
2022/08/06 07:10:43;;;;;;;6.03;3.78;;;;;;;15.25;53.57;101733.94;5044586;28;20392;-75
2022/08/06 07:13:11;;;;;;;7.75;3.80;;;;;;;15.28;53.11;101730.66;5048084;28;20041;-74
2022/08/06 07:15:40;;;;;;;3.75;2.97;;;;;;;15.34;53.46;101732.34;5039484;28;20118;-72
2022/08/06 07:18:07;;;;;;;4.88;3.80;;;;;;;15.40;53.41;101736.78;5043598;28;20029;-73
2022/08/06 07:20:34;;;;;;;5.00;3.63;;;;;;;15.50;53.12;101728.56;5044262;28;20029;-72
2022/08/06 07:23:06;;;;;;;4.95;3.05;;;;;;;15.61;52.58;101723.09;5050392;28;20086;-74
2022/08/06 07:25:36;;;;;;;5.25;3.20;;;;;;;15.74;53.18;101732.81;5039517;28;20372;-73
2022/08/06 07:28:02;;;;;;;5.68;3.40;;;;;;;15.73;52.87;101732.00;5043992;28;20496;-73
2022/08/06 07:30:29;;;;;;;7.43;3.67;;;;;;;15.73;52.96;101720.16;5049462;28;20491;-74
2022/08/06 07:32:56;;;;;;;5.93;3.78;;;;;;;15.65;52.77;101725.06;5048998;28;20055;-72
2022/08/06 07:35:21;;;;;;;6.00;4.07;;;;;;;15.64;53.37;101739.13;5048991;28;20184;-75
2022/08/06 07:37:56;;;;;;;4.88;3.40;;;;;;;15.65;53.27;101735.25;5064468;28;20140;-74
2022/08/06 07:40:26;;;;;;;3.97;2.70;;;;;;;15.69;53.81;101737.19;5038507;28;20029;-75
2022/08/06 07:43:06;;;;;;;6.07;4.15;;;;;;;15.78;53.70;101745.81;5056553;28;20025;-72
2022/08/06 07:45:33;;;;;;;4.38;3.15;;;;;;;15.82;53.47;101740.63;5043158;28;20124;-75
2022/08/06 07:48:04;;;;;;;4.47;3.00;;;;;;;15.94;53.29;101754.19;5038766;28;20049;-74
2022/08/06 07:50:32;;;;;;;4.80;3.50;;;;;;;16.03;53.35;101747.03;5039172;28;20017;-74
2022/08/06 07:52:58;;;;;;;5.43;3.83;;;;;;;16.06;53.40;101738.22;5055701;28;20029;-73
2022/08/06 07:55:28;;;;;;;6.07;3.70;;;;;;;16.12;53.35;101739.91;5057342;28;20025;-75
2022/08/06 07:57:55;;;;;;;5.40;3.45;;;;;;;16.17;53.03;101731.63;5064923;28;20124;-74
2022/08/06 08:00:23;;;;;;;3.88;2.80;;;;;;;16.28;53.30;101732.50;5052744;28;20032;-75
2022/08/06 08:08:25;;;;;;;4.30;2.30;;;;;;;16.66;52.25;101741.38;5056295;28;20521;-74
2022/08/06 08:10:53;;;;;;;6.15;3.00;;;;;;;16.82;52.38;101747.75;5050115;28;20420;-73
2022/08/06 08:13:20;;;;;;;4.78;2.92;;;;;;;16.93;51.60;101743.88;5070459;28;20450;-74
2022/08/06 08:15:47;;;;;;;3.67;2.42;;;;;;;17.08;50.98;101744.97;5052515;28;20035;-74
2022/08/06 08:18:13;;;;;;;2.50;1.85;;;;;;;17.19;50.18;101740.28;5061543;28;20028;-74
2022/08/06 08:20:41;;;;;;;5.13;2.60;;;;;;;17.35;50.29;101733.63;5042735;28;20394;-74
2022/08/06 08:23:08;;;;;;;3.42;2.08;;;;;;;17.54;49.33;101736.59;5054456;28;20475;-74
2022/08/06 08:25:34;;;;;;;5.25;2.22;;;;;;;17.74;48.61;101740.41;5040006;28;20032;-73
2022/08/06 08:28:00;;;;;;;5.78;1.70;;;;;;;17.82;47.39;101731.53;5039697;28;20025;-74
2022/08/06 08:30:25;;;;;;;5.82;1.80;;;;;;;18.02;46.48;101747.25;5045110;28;20037;-75
2022/08/06 08:32:51;;;;;;;4.47;1.90;;;;;;;18.10;46.89;101737.50;5052581;28;20021;-76
2022/08/06 08:35:16;;;;;;;3.85;2.28;;;;;;;18.20;45.87;101737.44;5048431;28;20029;-74
2022/08/06 08:37:42;;;;;;;3.38;1.98;;;;;;;18.36;45.88;101745.69;5041161;28;20095;-74
2022/08/06 08:40:08;;;;;;;3.63;1.75;;;;;;;18.48;45.81;101744.19;5049152;28;20025;-73
2022/08/06 08:42:39;;;;;;;2.47;1.75;;;;;;;18.56;45.24;101745.53;5044881;28;20029;-75
2022/08/06 08:45:06;;;;;;;3.75;2.00;;;;;;;18.63;44.76;101743.25;5042149;28;20029;-74
2022/08/06 08:47:33;;;;;;;4.72;2.25;;;;;;;18.72;44.22;101748.16;5053091;28;20056;-75
2022/08/06 08:50:01;;;;;;;3.13;2.20;;;;;;;18.88;44.15;101746.13;5051869;28;20029;-75
2022/08/06 08:52:31;;;;;;;3.25;1.98;;;;;;;18.96;43.54;101746.34;5068317;28;20052;-74
2022/08/06 08:55:04;;;;;;;7.20;2.30;;;;;;;19.06;43.19;101739.06;5046772;28;20036;-73
2022/08/06 08:57:31;;;;;;;2.40;1.60;;;;;;;19.13;43.22;101745.91;5044073;28;20021;-72
2022/08/06 08:59:56;;;;;;;3.08;1.90;;;;;;;19.21;42.18;101744.44;5041280;28;20352;-75
2022/08/06 09:02:23;;;;;;;2.15;1.90;;;;;;;19.24;42.63;101740.28;5045659;28;20029;-74
2022/08/06 09:04:50;;;;;;;2.53;1.77;;;;;;;19.34;42.39;101740.97;5019624;28;20038;-73
2022/08/06 09:07:15;;;;;;;4.53;2.08;;;;;;;19.43;41.69;101748.66;5039796;28;20032;-74
2022/08/06 09:09:41;;;;;;;3.65;2.05;;;;;;;19.56;40.95;101749.91;5042747;28;20036;-73
2022/08/06 09:12:07;;;;;;;6.45;2.10;;;;;;;19.67;41.37;101757.00;5055983;28;20025;-72
2022/08/06 09:14:34;;;;;;;2.42;1.48;;;;;;;19.85;41.30;101752.66;5052236;28;20457;-72
2022/08/06 09:17:02;;;;;;;2.83;1.73;;;;;;;20.08;40.35;101759.28;5043593;28;20096;-73
2022/08/06 09:19:29;;;;;;;5.68;2.03;;;;;;;20.18;38.98;101744.44;5038018;28;20092;-74
2022/08/06 09:21:56;;;;;;;5.18;1.70;;;;;;;20.23;39.84;101749.91;5040979;28;20038;-74
2022/08/06 09:24:23;;;;;;;1.80;1.55;;;;;;;20.33;39.49;101758.09;5042103;28;20045;-74
2022/08/06 09:27:10;;;;;;;4.50;1.90;;;;;;;20.42;38.49;101757.44;5044221;28;20040;-73
2022/08/06 09:29:36;;;;;;;3.65;1.90;;;;;;;20.59;38.97;101760.50;5062450;28;20036;-74
2022/08/06 09:32:06;;;;;;;3.50;1.25;;;;;;;20.71;38.22;101758.13;5050833;28;20092;-73
2022/08/06 09:34:37;;;;;;;3.70;1.80;;;;;;;20.89;38.18;101753.63;5038717;28;20087;-73
2022/08/06 09:37:03;;;;;;;2.55;1.38;;;;;;;21.82;37.17;101762.28;5048310;28;20009;-73
2022/08/06 09:39:32;;;;;;;7.95;1.80;;;;;;;24.23;32.36;101772.09;5045660;28;20053;-73
2022/08/06 09:41:57;;;;;;;4.63;1.58;;;;;;;27.07;27.95;101773.84;5047652;28;20048;-72
2022/08/06 09:44:23;;;;;;;3.30;1.50;;;;;;;30.06;24.48;101782.69;5035880;28;20021;-73
2022/08/06 09:46:52;;;;;;;2.40;1.30;;;;;;;32.79;21.31;101786.69;5042510;28;20025;-74
2022/08/06 09:49:18;;;;;;;3.78;1.50;;;;;;;35.02;19.55;101795.19;5039585;28;20029;-74
2022/08/06 09:51:44;;;;;;;3.08;1.35;;;;;;;36.90;17.09;101785.19;5055586;28;20033;-72
2022/08/06 09:54:18;;;;;;;5.88;1.77;;;;;;;38.10;16.07;101782.94;5052057;28;20415;-74
2022/08/06 09:56:44;;;;;;;2.13;1.25;;;;;;;39.19;14.87;101788.06;5044816;28;20033;-72
2022/08/06 09:59:12;;;;;;;2.15;1.35;;;;;;;40.38;14.43;101780.16;5050812;28;20071;-74
2022/08/06 10:01:42;;;;;;;2.53;0.95;;;;;;;41.80;14.20;101790.78;5030212;28;20044;-74
2022/08/06 10:04:28;;;;;;;3.50;1.15;;;;;;;43.16;13.41;101791.66;5054815;28;20017;-73
2022/08/06 10:07:01;;;;;;;1.15;0.85;;;;;;;44.62;12.45;101789.69;5042701;28;20025;-74
2022/08/06 10:09:27;;;;;;;;;;;;;;;45.37;10.52;101778.44;5038877;28;20489;-73
2022/08/06 10:11:53;;;;;;;0.47;0.47;;;;;;;45.60;10.79;101779.94;5054720;28;19952;-74
2022/08/06 10:14:33;;;;;;;2.92;0.90;;;;;;;46.28;10.13;101779.78;5048650;28;20052;-74
2022/08/06 10:17:22;;;;;;;1.05;0.88;;;;;;;46.94;9.87;101780.34;5067234;28;20070;-74
2022/08/06 10:20:08;;;;;;;5.00;0.80;;;;;;;46.85;9.69;101781.19;5043209;28;20433;-74
2022/08/06 10:22:34;;;;;;;1.73;0.82;;;;;;;47.12;8.81;101786.03;5056740;28;20029;-74
2022/08/06 10:25:03;;;;;;;1.95;0.93;;;;;;;47.27;8.20;101777.44;5057259;28;20480;-75
2022/08/06 10:27:33;;;;;;;1.73;0.90;;;;;;;47.58;8.35;101779.16;5059693;28;20087;-74
2022/08/06 10:30:02;;;;;;;3.15;1.10;;;;;;;47.94;7.46;101768.53;5048115;28;20021;-73
2022/08/06 10:32:41;;;;;;;3.08;0.73;;;;;;;48.01;8.28;101779.72;5050825;28;20025;-74
2022/08/06 10:35:08;;;;;;;1.88;0.70;;;;;;;48.84;7.43;101768.53;5044399;28;20021;-75
2022/08/06 10:37:41;;;;;;;1.02;0.77;;;;;;;48.60;7.51;101775.25;5055989;28;20021;-74
2022/08/06 10:40:08;;;;;;;;;;;;;;;48.80;7.72;101767.91;5058008;28;20033;-73
2022/08/06 10:42:34;;;;;;;1.30;0.90;;;;;;;49.16;7.27;101765.81;5040870;28;19913;-73
2022/08/06 10:45:01;;;;;;;1.85;0.75;;;;;;;49.87;7.55;101765.59;5038064;28;20075;-73
2022/08/06 10:47:27;;;;;;;1.55;0.60;;;;;;;50.97;6.90;101761.81;5036463;28;20044;-73
2022/08/06 10:49:54;;;;;;;1.23;0.88;;;;;;;50.92;6.14;101753.81;5046003;28;20025;-73
2022/08/06 10:52:20;;;;;;;1.27;0.68;;;;;;;51.03;6.08;101756.03;5052106;28;20037;-74
2022/08/06 10:54:45;;;;;;;1.00;0.50;;;;;;;51.08;5.93;101756.03;5035682;28;20029;-75
2022/08/06 10:57:14;;;;;;;1.73;0.70;;;;;;;51.07;6.11;101748.63;5043309;28;20535;-74
2022/08/06 10:59:45;;;;;;;1.02;0.60;;;;;;;50.99;5.87;101744.63;5053605;28;20043;-74
2022/08/06 11:02:35;;;;;;;1.35;0.68;;;;;;;50.53;6.49;101751.41;5057744;28;20017;-75
2022/08/06 11:05:06;;;;;;;3.42;0.82;;;;;;;50.54;6.48;101748.00;5042104;28;20039;-74
2022/08/06 11:08:07;;;;;;;0.57;0.50;;;;;;;50.72;6.38;101746.84;5068185;28;20056;-73
2022/08/06 11:10:38;;;;;;;1.45;0.63;;;;;;;50.52;5.05;101735.28;5045686;28;20018;-73
2022/08/06 11:13:23;;;;;;;0.80;0.50;;;;;;;50.83;5.74;101739.47;5037572;28;20046;-74
2022/08/06 11:15:49;;;;;;;0.93;0.55;;;;;;;50.64;5.35;101734.06;5015323;28;20039;-74
2022/08/06 11:18:15;;;;;;;2.08;0.80;;;;;;;50.85;5.22;101739.75;5017287;28;20038;-75
2022/08/06 11:20:45;;;;;;;1.15;0.60;;;;;;;51.31;5.44;101727.81;5012341;28;20101;-74
2022/08/06 11:23:11;;;;;;;1.58;0.63;;;;;;;51.64;5.23;101731.34;5000783;28;20481;-74
2022/08/06 11:25:41;;;;;;;1.30;0.70;;;;;;;52.44;5.17;101735.16;5021155;28;20031;-74
2022/08/06 11:28:08;;;;;;;1.85;0.70;;;;;;;53.36;4.48;101734.34;5007667;28;20038;-74
2022/08/06 11:30:39;;;;;;;0.50;0.40;;;;;;;53.69;4.61;101732.59;5004059;28;20480;-74
2022/08/06 11:33:05;;;;;;;2.40;0.70;;;;;;;54.15;3.89;101721.31;5028451;28;20553;-74
2022/08/06 11:35:33;;;;;;;1.55;0.73;;;;;;;54.52;4.00;101726.56;5014615;28;20025;-74
2022/08/06 11:38:09;;;;;;;1.33;0.82;;;;;;;54.52;3.88;101714.06;5025320;28;20075;-73
2022/08/06 11:40:59;;;;;;;1.15;0.60;;;;;;;55.19;4.07;101712.47;5003556;28;20030;-73
2022/08/06 11:43:52;;;;;;;1.02;0.60;;;;;;;54.75;3.88;101721.28;5024631;28;20032;-73
2022/08/06 11:46:17;;;;;;;1.25;0.70;;;;;;;55.15;3.88;101706.13;5019411;28;20018;-74